Time;durP1;ratioP1;P1;durP2;ratioP2;P2;SDS_P1;SDS_P2;PMS_P1;PMS_P2;Temp;Humidity;BMP_temperature;BMP_pressure;BME280_temperature;BME280_humidity;BME280_pressure;Samples;Min_cycle;Max_cycle;Signal;HPM_P1;HPM_P2
2022/05/01 00:08:04;;;;;;;2.93;1.60;;;;;;;;;;21025144;28;20249;-66
2022/05/01 00:18:06;;;;;;;3.87;1.90;;;11.70;99.90;;;;;;21071547;28;20220;-67
2022/05/01 00:28:12;;;;;;;4.80;2.00;;;11.90;99.90;;;;;;21101625;28;20558;-67
2022/05/01 00:38:14;;;;;;;3.70;1.90;;;;;;;;;;21107686;28;20630;-67
2022/05/01 00:48:16;;;;;;;5.60;2.10;;;;;;;;;;21107193;28;20752;-67
2022/05/01 00:58:18;;;;;;;2.90;2.10;;;;;;;;;;21140054;28;20771;-67
2022/05/01 01:08:19;;;;;;;2.27;1.90;;;;;;;;;;21123277;28;20204;-67
2022/05/01 01:18:25;;;;;;;2.97;2.00;;;12.00;99.90;;;;;;21122925;28;20215;-66
2022/05/01 01:28:28;;;;;;;2.37;1.70;;;11.80;99.90;;;;;;21105100;28;20212;-67
2022/05/01 01:38:31;;;;;;;3.60;2.23;;;;;;;;;;21099816;28;20285;-67
2022/05/01 01:48:33;;;;;;;2.77;1.63;;;;;;;;;;21120190;28;20260;-66
2022/05/01 01:58:34;;;;;;;3.57;2.00;;;;;;;;;;21136187;28;20216;-67
2022/05/01 02:08:37;;;;;;;4.00;2.00;;;;;;;;;;21135136;28;20216;-66
2022/05/01 02:18:39;;;;;;;2.90;1.93;;;;;;;;;;21117595;28;20220;-67
2022/05/01 02:28:40;;;;;;;2.63;1.97;;;;;;;;;;21117023;28;20204;-67
2022/05/01 02:38:44;;;;;;;4.27;2.43;;;;;;;;;;21099769;28;20264;-66
2022/05/01 02:48:45;;;;;;;1.90;1.50;;;11.30;99.90;;;;;;21070563;28;20270;-67
2022/05/01 02:58:47;;;;;;;3.33;1.83;;;;;;;;;;21030912;28;20217;-67
2022/05/01 03:08:50;;;;;;;2.10;1.50;;;;;;;;;;21046574;28;20250;-67
2022/05/01 03:29:12;;;;;;;3.00;1.87;;;;;;;;;;21065095;28;20591;-67
2022/05/01 03:39:15;;;;;;;3.40;1.73;;;;;;;;;;21094899;28;20223;-67
2022/05/01 03:49:17;;;;;;;3.87;1.70;;;;;;;;;;21110565;28;20199;-66
2022/05/01 03:59:18;;;;;;;3.10;1.73;;;;;;;;;;21109042;28;20277;-66
2022/05/01 04:09:24;;;;;;;3.27;1.60;;;;;;;;;;21109147;28;20207;-67
2022/05/01 04:19:26;;;;;;;3.10;1.77;;;11.20;99.90;;;;;;21108557;28;20220;-67
2022/05/01 04:29:38;;;;;;;2.70;1.50;;;;;;;;;;21107641;28;20268;-67
2022/05/01 04:39:40;;;;;;;4.93;1.50;;;;;;;;;;21106667;28;20211;-67
2022/05/01 04:49:42;;;;;;;2.60;1.63;;;;;;;;;;21096072;28;20262;-67
2022/05/01 04:59:44;;;;;;;2.07;1.47;;;;;;;;;;21112529;28;20233;-67
2022/05/01 05:09:55;;;;;;;3.40;1.70;;;;;;;;;;21086533;28;20268;-67
2022/05/01 05:19:57;;;;;;;2.50;1.80;;;;;;;;;;21122473;28;20295;-67
2022/05/01 05:29:59;;;;;;;2.30;1.70;;;;;;;;;;21100624;28;20686;-66
2022/05/01 05:40:01;;;;;;;3.53;1.37;;;11.40;99.90;;;;;;21128738;28;20224;-67
2022/05/01 05:50:03;;;;;;;2.07;1.50;;;;;;;;;;21120581;28;20212;-67
2022/05/01 06:00:05;;;;;;;3.17;1.63;;;11.50;99.90;;;;;;21119641;28;20281;-66
2022/05/01 06:10:14;;;;;;;2.57;1.50;;;;;;;;;;21120294;28;20253;-67
2022/05/01 06:20:16;;;;;;;2.90;1.70;;;11.80;99.90;;;;;;21133661;28;20223;-67
2022/05/01 06:30:17;;;;;;;3.40;1.27;;;;;;;;;;21100480;28;20212;-66
2022/05/01 06:40:19;;;;;;;1.93;1.33;;;;;;;;;;21116062;28;20276;-67
2022/05/01 06:50:21;;;;;;;2.10;1.27;;;;;;;;;;21115686;28;20221;-65
2022/05/01 07:00:24;;;;;;;3.00;1.60;;;12.00;99.90;;;;;;21114924;28;20231;-65
2022/05/01 07:10:25;;;;;;;2.50;1.60;;;;;;;;;;21095588;28;20259;-65
2022/05/01 07:20:27;;;;;;;3.70;1.57;;;;;;;;;;21057746;28;20258;-65
2022/05/01 07:30:29;;;;;;;1.73;1.30;;;;;;;;;;21041629;28;20229;-65
2022/05/01 07:40:31;;;;;;;3.70;1.70;;;;;;;;;;21066888;28;20216;-65
2022/05/01 07:50:33;;;;;;;1.97;1.50;;;;;;;;;;21097299;28;20212;-65
2022/05/01 08:00:35;;;;;;;4.27;1.73;;;;;;;;;;21038438;28;20216;-65
2022/05/01 08:10:37;;;;;;;2.10;1.60;;;;;;;;;;21024748;28;20208;-65
2022/05/01 08:31:00;;;;;;;3.40;2.00;;;14.10;99.90;;;;;;20993636;28;20266;-66
2022/05/01 08:41:02;;;;;;;4.30;1.90;;;14.20;99.90;;;;;;21042321;28;20269;-65
2022/05/01 08:51:04;;;;;;;3.73;2.23;;;14.40;99.90;;;;;;21022356;28;20205;-65
2022/05/01 09:01:09;;;;;;;4.13;2.20;;;14.40;99.90;;;;;;21001348;28;20220;-65
2022/05/01 09:21:51;;;;;;;3.50;2.50;;;;;;;;;;20946641;28;20274;-65
2022/05/01 09:31:53;;;;;;;3.87;2.60;;;;;;;;;;20946889;22;20274;-67
2022/05/01 09:41:55;;;;;;;4.10;2.87;;;;;;;;;;20901149;28;20295;-67
2022/05/01 09:51:57;;;;;;;5.23;3.20;;;;;;;;;;20847095;28;20280;-67
2022/05/01 10:02:06;;;;;;;3.47;2.70;;;15.10;99.90;;;;;;20868750;28;20221;-67
2022/05/01 10:12:10;;;;;;;8.20;3.60;;;;;;;;;;20879423;28;20577;-67
2022/05/01 10:22:12;;;;;;;4.83;3.40;;;15.10;99.90;;;;;;20872895;28;20611;-67
2022/05/01 10:32:28;;;;;;;4.33;3.07;;;15.00;99.90;;;;;;20874768;28;20283;-67
2022/05/01 10:42:36;;;;;;;4.63;3.23;;;14.60;99.90;;;;;;20866270;28;20218;-67
2022/05/01 10:53:06;;;;;;;3.43;2.80;;;14.80;99.90;;;;;;20887630;28;20226;-66
2022/05/01 11:03:32;;;;;;;4.40;3.10;;;14.60;99.90;;;;;;20890118;28;20225;-67
2022/05/01 11:13:39;;;;;;;4.10;2.60;;;;;;;;;;20891882;28;20202;-67
2022/05/01 11:23:43;;;;;;;4.00;3.10;;;15.10;99.90;;;;;;20889712;28;20244;-67
2022/05/01 11:34:20;;;;;;;4.37;3.30;;;15.00;99.90;;;;;;20862283;28;20221;-68
2022/05/01 11:44:23;;;;;;;4.70;3.50;;;14.90;99.90;;;;;;20877749;28;20225;-67
2022/05/01 11:54:28;;;;;;;5.60;3.40;;;;;;;;;;20877143;28;20287;-67
2022/05/01 12:04:31;;;;;;;5.47;3.67;;;;;;;;;;20846178;28;20280;-68
2022/05/01 12:14:34;;;;;;;6.43;3.90;;;;;;;;;;20874123;28;20261;-68
2022/05/01 12:24:36;;;;;;;4.30;3.33;;;15.10;99.90;;;;;;20873269;28;20218;-68
2022/05/01 12:34:39;;;;;;;5.60;4.23;;;15.30;99.90;;;;;;20841757;28;20218;-68
2022/05/01 12:45:13;;;;;;;4.90;3.60;;;15.50;99.90;;;;;;20897580;28;20712;-68
2022/05/01 12:55:16;;;;;;;4.90;3.77;;;;;;;;;;20881377;28;20198;-68
2022/05/01 13:05:18;;;;;;;4.80;3.90;;;;;;;;;;20895330;28;20554;-68
2022/05/01 13:15:37;;;;;;;5.67;3.67;;;15.90;99.90;;;;;;20849635;28;20217;-68
2022/05/01 13:25:40;;;;;;;4.60;3.77;;;;;;;;;;20881924;28;20221;-68
2022/05/01 13:35:43;;;;;;;4.70;3.30;;;;;;;;;;20892009;28;20620;-68
2022/05/01 13:45:46;;;;;;;4.80;4.07;;;;;;;;;;20868837;28;20240;-68
2022/05/01 13:55:48;;;;;;;7.07;4.13;;;;;;;;;;20868309;28;20263;-68
2022/05/01 14:05:50;;;;;;;4.27;3.53;;;;;;;;;;20883437;28;20230;-68
2022/05/01 14:15:52;;;;;;;5.17;3.80;;;;;;;;;;20883543;28;20267;-68
2022/05/01 14:25:54;;;;;;;3.63;2.90;;;;;;;;;;20866131;28;20218;-68
2022/05/01 14:35:56;;;;;;;4.60;3.20;;;;;;;;;;20881758;28;20237;-68
2022/05/01 14:46:06;;;;;;;4.20;2.97;;;16.30;99.90;;;;;;20879877;28;20243;-68
2022/05/01 14:56:08;;;;;;;5.13;3.43;;;;;;;;;;20879895;28;20218;-68
2022/05/01 15:06:19;;;;;;;5.37;3.20;;;;;;;;;;20879239;28;20221;-68
2022/05/01 15:16:42;;;;;;;4.93;3.50;;;;;;;;;;20907367;28;20255;-70
2022/05/01 15:26:50;;;;;;;5.57;3.93;;;;;;;;;;20898170;28;20278;-68
2022/05/01 15:36:52;;;;;;;4.00;3.20;;;;;;;;;;20923232;28;20226;-68
2022/05/01 15:47:03;;;;;;;5.50;3.67;;;18.20;99.90;;;;;;20882981;28;20281;-68
2022/05/01 15:57:06;;;;;;;4.80;4.10;;;18.00;99.90;;;;;;20875744;28;20197;-68
2022/05/01 16:07:29;;;;;;;6.60;4.30;;;17.90;99.90;;;;;;20916523;28;20206;-67
2022/05/01 16:17:50;;;;;;;5.47;4.13;;;;;;;;;;20431037;23;20311;-74
2022/05/01 16:27:56;;;;;;;6.43;4.90;;;;;;;;;;20376672;29;20236;-74
2022/05/01 16:38:00;;;;;;;4.33;3.50;;;;;;;;;;20312943;29;20261;-75
2022/05/01 16:48:06;;;;;;;5.20;4.20;;;17.20;99.90;;;;;;20381599;29;20194;-74
2022/05/01 16:58:09;;;;;;;5.83;4.07;;;17.10;99.90;;;;;;20345051;29;20581;-75
2022/05/01 17:08:14;;;;;;;5.00;3.50;;;;;;;;;;20331492;28;20202;-75
2022/05/01 17:18:18;;;;;;;6.20;5.03;;;;;;;;;;20412178;28;20222;-75
2022/05/01 17:28:26;;;;;;;5.07;3.90;;;16.60;99.90;;;;;;20359833;28;20373;-75
2022/05/01 17:38:30;;;;;;;5.10;3.63;;;;;;;;;;20386623;29;20222;-75
2022/05/01 17:48:33;;;;;;;4.70;3.67;;;;;;;;;;20406326;29;20263;-75
2022/05/01 17:58:35;;;;;;;4.80;3.83;;;;;;;;;;20406094;29;20240;-75
2022/05/01 18:19:00;;;;;;;5.33;3.70;;;;;;;;;;20350824;28;20709;-75
2022/05/01 18:39:49;;;;;;;5.30;3.80;;;;;;;;;;20404706;29;20280;-75
2022/05/01 18:49:54;;;;;;;4.87;3.60;;;15.60;99.90;;;;;;20377187;29;20218;-74
2022/05/01 18:59:56;;;;;;;5.97;4.17;;;15.70;99.90;;;;;;20417895;28;20246;-75
2022/05/01 19:10:15;;;;;;;5.00;3.93;;;15.60;99.90;;;;;;20383827;29;20221;-75
2022/05/01 19:20:22;;;;;;;5.73;3.53;;;;;;;;;;20405743;29;20240;-75
2022/05/01 19:30:25;;;;;;;7.13;5.40;;;;;;;;;;20399806;29;20202;-74
2022/05/01 19:40:30;;;;;;;5.07;4.03;;;;;;;;;;20403115;28;20231;-74
2022/05/01 20:01:13;;;;;;;6.73;3.50;;;;;;;;;;20387857;29;20276;-74
2022/05/01 20:11:21;;;;;;;5.23;3.17;;;15.10;99.90;;;;;;20416829;28;20288;-74
2022/05/01 20:21:35;;;;;;;3.97;3.13;;;;;;;;;;20372086;29;20653;-75
2022/05/01 20:32:08;;;;;;;3.97;3.20;;;14.80;99.90;;;;;;20405689;29;20447;-75
2022/05/01 20:42:13;;;;;;;5.33;3.07;;;;;;;;;;20336598;29;20222;-76
2022/05/01 20:52:20;;;;;;;3.87;2.90;;;;;;;;;;20402914;29;20221;-74
2022/05/01 21:02:35;;;;;;;3.50;2.77;;;14.50;99.90;;;;;;20363502;28;20225;-75
2022/05/01 21:12:37;;;;;;;4.17;3.37;;;;;;;;;;20403228;29;20677;-73
2022/05/01 21:22:39;;;;;;;5.10;3.63;;;14.50;99.90;;;;;;20367033;28;20214;-73
2022/05/01 21:32:41;;;;;;;4.03;3.33;;;;;;;;;;20369507;28;20207;-74
2022/05/01 21:42:42;;;;;;;3.73;2.33;;;;;;;;;;20452717;28;20230;-73
2022/05/01 21:52:44;;;;;;;3.53;2.30;;;;;;;;;;20402372;29;20218;-73
2022/05/01 22:02:46;;;;;;;3.17;2.53;;;;;;;;;;20373455;29;20276;-74
2022/05/01 22:12:48;;;;;;;3.33;2.23;;;;;;;;;;20669415;22;20287;-68
2022/05/01 22:22:52;;;;;;;2.63;1.80;;;;;;;;;;20999584;28;20262;-68
2022/05/01 22:32:54;;;;;;;2.90;2.17;;;;;;;;;;20999190;28;20205;-68
2022/05/01 22:42:56;;;;;;;3.40;2.10;;;;;;;;;;21031822;28;20212;-68
2022/05/01 22:52:58;;;;;;;4.50;2.20;;;11.50;99.90;;;;;;21047273;28;20196;-68
2022/05/01 23:03:00;;;;;;;2.63;1.87;;;;;;;;;;21030193;28;20242;-68
2022/05/01 23:13:02;;;;;;;3.77;2.10;;;;;;;;;;21063211;28;20217;-69
2022/05/01 23:23:04;;;;;;;2.80;2.10;;;;;;;;;;21029612;28;20282;-68
2022/05/01 23:33:08;;;;;;;2.60;1.90;;;9.50;99.90;;;;;;21044354;28;20699;-68
2022/05/01 23:43:10;;;;;;;2.83;2.10;;;;;;;;;;21027316;28;20788;-68
2022/05/01 23:53:12;;;;;;;3.23;2.20;;;;;;;;;;20980643;28;20267;-68
